Time;durP1;ratioP1;P1;durP2;ratioP2;P2;SDS_P1;SDS_P2;PMS_P1;PMS_P2;Temp;Humidity;BMP_temperature;BMP_pressure;BME280_temperature;BME280_humidity;BME280_pressure;Samples;Min_cycle;Max_cycle;Signal;HPM_P1;HPM_P2
2022/11/30 00:01:53;;;;;;;0.17;0.17;;;;;;;;;;5074065;28;20012;-70
2022/11/30 00:04:19;;;;;;;0.17;0.17;;;;;;;;;;5069127;28;20032;-72
2022/11/30 00:06:44;;;;;;;0.13;0.13;;;;;;;;;;5070556;28;20484;-71
2022/11/30 00:09:10;;;;;;;0.10;0.10;;;;;;;;;;5070865;28;20028;-73
2022/11/30 00:11:35;;;;;;;3.35;2.80;;;;;;;;;;5069214;28;20073;-71
2022/11/30 00:14:01;;;;;;;0.20;0.20;;;;;;;;;;5070281;28;20028;-71
2022/11/30 00:16:26;;;;;;;0.20;0.20;;;;;;;;;;5070880;28;20039;-70
2022/11/30 00:18:52;;;;;;;0.30;0.30;;;;;;;;;;5073773;28;20032;-71
2022/11/30 00:21:17;;;;;;;0.13;0.13;;;;;;;;;;5073701;28;20071;-71
2022/11/30 00:23:43;;;;;;;0.20;0.20;;;;;;;;;;5073008;28;20081;-72
2022/11/30 00:26:10;;;;;;;0.10;0.10;;;;;;;;;;5072636;28;20423;-71
2022/11/30 00:28:36;;;;;;;0.20;0.20;;;;;;;;;;5073721;28;20047;-71
2022/11/30 00:31:06;;;;;;;0.47;0.47;;;;;;;;;;5072556;28;20410;-71
2022/11/30 00:33:31;;;;;;;;;;;;;;;;;;5073929;28;20028;-71
2022/11/30 00:36:04;;;;;;;1.27;1.17;;;;;;;;;;5073452;28;20498;-70
2022/11/30 00:38:30;;;;;;;0.10;0.10;;;;;;;;;;5072449;28;20293;-69
2022/11/30 00:40:56;;;;;;;0.20;0.20;;;;;;;;;;5073430;28;20036;-70
2022/11/30 00:43:21;;;;;;;0.20;0.20;;;;;;;;;;5073478;28;20105;-71
2022/11/30 00:45:46;;;;;;;0.20;0.20;;;;;;;;;;5072288;28;20031;-71
2022/11/30 00:48:12;;;;;;;0.10;0.10;;;;;;;;;;5073456;28;20537;-71
2022/11/30 00:50:37;;;;;;;0.20;0.20;;;;;;;;;;5071655;28;20434;-71
2022/11/30 00:53:03;;;;;;;1.55;1.45;;;;;;;;;;5073576;28;20398;-70
2022/11/30 00:55:30;;;;;;;0.10;0.10;;;;;;;;;;5072945;28;20044;-70
2022/11/30 00:57:55;;;;;;;0.20;0.20;;;;;;;;;;5055251;28;20028;-71
2022/11/30 01:00:21;;;;;;;0.30;0.30;;;;;;;;;;5073257;28;20429;-71
2022/11/30 01:02:46;;;;;;;0.43;0.43;;;;;;;;;;5060669;28;20502;-71
2022/11/30 01:05:11;;;;;;;0.30;0.30;;;;;;;;;;5071850;28;20622;-70
2022/11/30 01:07:37;;;;;;;0.10;0.10;;;;;;;;;;5073078;28;20107;-70
2022/11/30 01:10:02;;;;;;;0.20;0.20;;;;;;;;;;5072595;28;20029;-71
2022/11/30 01:12:28;;;;;;;0.10;0.10;;;;;;;;;;5073150;28;20039;-70
2022/11/30 01:14:53;;;;;;;0.10;0.10;;;;;;;;;;5073172;28;20490;-70
2022/11/30 01:17:19;;;;;;;0.10;0.10;;;;;;;;;;5072724;28;20519;-70
2022/11/30 01:19:44;;;;;;;0.80;0.80;;;;;;;;;;5073015;28;20035;-70
2022/11/30 01:22:10;;;;;;;3.22;2.45;;;;;;;;;;5073266;28;20037;-70
2022/11/30 01:24:35;;;;;;;0.45;0.45;;;;;;;;;;5072947;28;20063;-70
2022/11/30 01:27:01;;;;;;;0.20;0.20;;;;;;;;;;5073586;28;20059;-70
2022/11/30 01:29:26;;;;;;;0.10;0.10;;;;;;;;;;5073411;28;20055;-70
2022/11/30 01:31:51;;;;;;;0.20;0.20;;;;;;;;;;5072988;28;20634;-69
2022/11/30 01:34:17;;;;;;;0.20;0.20;;;;;;;;;;5070464;28;20415;-69
2022/11/30 01:36:42;;;;;;;0.20;0.20;;;;;;;;;;5073145;28;20060;-69
2022/11/30 01:39:08;;;;;;;0.22;0.22;;;;;;;;;;5072896;28;20100;-69
2022/11/30 01:41:34;;;;;;;0.30;0.30;;;;;;;;;;5073283;28;20025;-69
2022/11/30 01:44:05;;;;;;;0.17;0.17;;;;;;;;;;5071724;28;20028;-70
2022/11/30 01:46:39;;;;;;;0.60;0.60;;;;;;;;;;5072461;28;20029;-69
2022/11/30 01:49:06;;;;;;;0.10;0.10;;;;;;;;;;5072607;28;20040;-69
2022/11/30 01:51:34;;;;;;;1.00;1.00;;;;;;;;;;5072166;28;20581;-71
2022/11/30 01:54:01;;;;;;;0.10;0.10;;;;;;;;;;5072725;28;20489;-70
2022/11/30 01:56:26;;;;;;;0.68;0.68;;;;;;;;;;5072499;28;20044;-70
2022/11/30 01:58:52;;;;;;;0.13;0.13;;;;;;;;;;5071529;28;20025;-70
2022/11/30 02:01:17;;;;;;;0.10;0.10;;;;;;;;;;5072636;28;20499;-71
2022/11/30 02:03:47;;;;;;;1.13;1.05;;;;;;;;;;5072445;28;20029;-70
2022/11/30 02:06:13;;;;;;;0.10;0.10;;;;;;;;;;5072830;28;20043;-69
2022/11/30 02:08:39;;;;;;;3.40;1.38;;;;;;;;;;5054801;28;20111;-70
2022/11/30 02:11:06;;;;;;;0.10;0.10;;;;;;;;;;5072700;28;20096;-69
2022/11/30 02:13:43;;;;;;;0.35;0.35;;;;;;;;;;5072750;28;20024;-69
2022/11/30 02:16:34;;;;;;;0.30;0.30;;;;;;;;;;5071815;28;20086;-69
2022/11/30 02:19:00;;;;;;;0.20;0.20;;;;;;;;;;5055853;28;20047;-70
2022/11/30 02:21:46;;;;;;;0.10;0.10;;;;;;;;;;5072700;28;20029;-70
2022/11/30 02:24:21;;;;;;;0.20;0.20;;;;;;;;;;5072770;28;20024;-70
2022/11/30 02:26:55;;;;;;;0.10;0.10;;;;;;;;;;5072232;28;20455;-70
2022/11/30 02:29:21;;;;;;;0.20;0.20;;;;;;;;;;5073686;28;20031;-70
2022/11/30 02:32:00;;;;;;;0.20;0.20;;;;;;;;;;5076003;28;20376;-71
2022/11/30 02:34:26;;;;;;;0.93;0.93;;;;;;;;;;5075769;28;20029;-70
2022/11/30 02:36:53;;;;;;;0.28;0.28;;;;;;;;;;5075771;28;20024;-73
2022/11/30 02:39:19;;;;;;;0.10;0.10;;;;;;;;;;5075813;28;20028;-71
2022/11/30 02:41:44;;;;;;;0.63;0.63;;;;;;;;;;5075951;28;20075;-70
2022/11/30 02:44:10;;;;;;;0.17;0.17;;;;;;;;;;5075798;28;20040;-70
2022/11/30 02:46:38;;;;;;;0.10;0.10;;;;;;;;;;5075816;28;20086;-71
2022/11/30 02:49:08;;;;;;;0.20;0.20;;;;;;;;;;5075124;28;20103;-71
2022/11/30 02:51:35;;;;;;;0.10;0.10;;;;;;;;;;5075495;28;20060;-70
2022/11/30 02:54:01;;;;;;;0.55;0.55;;;;;;;;;;5075535;28;20025;-70
2022/11/30 02:56:27;;;;;;;0.20;0.20;;;;;;;;;;5075712;28;20049;-70
2022/11/30 02:58:52;;;;;;;0.40;0.40;;;;;;;;;;5075499;28;20024;-70
2022/11/30 03:01:17;;;;;;;0.10;0.10;;;;;;;;;;5075495;28;20115;-70
2022/11/30 03:03:43;;;;;;;1.00;0.93;;;;;;;;;;5073782;28;20132;-70
2022/11/30 03:06:09;;;;;;;0.10;0.10;;;;;;;;;;5075284;28;20032;-70
2022/11/30 03:08:35;;;;;;;8.48;8.02;;;;;;;;;;5075243;28;20770;-70
2022/11/30 03:11:01;;;;;;;0.35;0.35;;;;;;;;;;5075208;28;20541;-70
2022/11/30 03:13:26;;;;;;;0.20;0.20;;;;;;;;;;5057389;28;20029;-70
2022/11/30 03:15:52;;;;;;;0.22;0.22;;;;;;;;;;5074048;28;20036;-71
2022/11/30 03:18:17;;;;;;;0.10;0.10;;;;;;;;;;5074205;28;20388;-71
2022/11/30 03:20:43;;;;;;;0.10;0.10;;;;;;;;;;5069295;28;20501;-71
2022/11/30 03:23:09;;;;;;;0.10;0.10;;;;;;;;;;5067292;28;20020;-69
2022/11/30 03:25:34;;;;;;;1.85;1.75;;;;;;;;;;5074928;28;20029;-71
2022/11/30 03:28:00;;;;;;;0.20;0.20;;;;;;;;;;5073805;28;20035;-70
2022/11/30 03:30:26;;;;;;;0.63;0.63;;;;;;;;;;5073545;28;20028;-70
2022/11/30 03:32:51;;;;;;;0.63;0.63;;;;;;;;;;5074793;28;20028;-70
2022/11/30 03:35:17;;;;;;;0.10;0.10;;;;;;;;;;5074750;28;20131;-70
2022/11/30 03:37:42;;;;;;;0.20;0.20;;;;;;;;;;5073929;28;20025;-69
2022/11/30 03:40:08;;;;;;;0.30;0.30;;;;;;;;;;5073065;28;20086;-70
2022/11/30 03:42:33;;;;;;;0.10;0.10;;;;;;;;;;5075065;28;20037;-71
2022/11/30 03:44:59;;;;;;;0.38;0.38;;;;;;;;;;5074468;28;20070;-70
2022/11/30 03:47:24;;;;;;;0.63;0.60;;;;;;;;;;5074641;28;20036;-71
2022/11/30 03:49:50;;;;;;;0.20;0.20;;;;;;;;;;5074461;28;20024;-71
2022/11/30 03:52:15;;;;;;;0.22;0.22;;;;;;;;;;5074303;28;20524;-71
2022/11/30 03:54:40;;;;;;;0.10;0.10;;;;;;;;;;5073063;28;20025;-71
2022/11/30 03:57:06;;;;;;;0.17;0.17;;;;;;;;;;5074496;28;20025;-71
2022/11/30 03:59:31;;;;;;;0.10;0.10;;;;;;;;;;5073668;28;20025;-69
2022/11/30 04:01:57;;;;;;;0.25;0.25;;;;;;;;;;5072825;28;20028;-74
2022/11/30 04:04:22;;;;;;;0.63;0.63;;;;;;;;;;5069609;28;20028;-70
2022/11/30 04:06:48;;;;;;;0.40;0.40;;;;;;;;;;5070373;28;20496;-70
2022/11/30 04:09:13;;;;;;;0.65;0.65;;;;;;;;;;5069941;28;20036;-69
2022/11/30 04:11:39;;;;;;;0.35;0.35;;;;;;;;;;5069773;28;20025;-70
2022/11/30 04:14:04;;;;;;;0.10;0.10;;;;;;;;;;5064118;28;20024;-72
2022/11/30 04:16:29;;;;;;;0.10;0.10;;;;;;;;;;5058933;28;20460;-71
2022/11/30 04:18:55;;;;;;;0.20;0.20;;;;;;;;;;5069282;28;20028;-71
2022/11/30 04:21:20;;;;;;;0.38;0.38;;;;;;;;;;5070295;28;20024;-70
2022/11/30 04:23:46;;;;;;;0.10;0.10;;;;;;;;;;5070058;28;20035;-71
2022/11/30 04:26:12;;;;;;;0.13;0.13;;;;;;;;;;5070053;28;20025;-70
2022/11/30 04:28:38;;;;;;;0.17;0.17;;;;;;;;;;5070311;28;20032;-69
2022/11/30 04:31:03;;;;;;;0.45;0.45;;;;;;;;;;5070046;28;20468;-70
2022/11/30 04:33:29;;;;;;;0.17;0.17;;;;;;;;;;5068861;28;20074;-73
2022/11/30 04:35:56;;;;;;;0.10;0.10;;;;;;;;;;5069875;28;20209;-70
2022/11/30 04:38:22;;;;;;;0.10;0.10;;;;;;;;;;5069934;28;20024;-70
2022/11/30 04:40:48;;;;;;;0.20;0.20;;;;;;;;;;5052089;28;20024;-71
2022/11/30 04:43:13;;;;;;;0.75;0.75;;;;;;;;;;5068447;28;20472;-71
2022/11/30 04:45:39;;;;;;;0.10;0.10;;;;;;;;;;5069679;28;20032;-74
2022/11/30 04:48:05;;;;;;;0.20;0.20;;;;;;;;;;5069812;28;20466;-68
2022/11/30 04:50:31;;;;;;;0.20;0.20;;;;;;;;;;5069594;28;20033;-71
2022/11/30 04:52:56;;;;;;;0.85;0.85;;;;;;;;;;5068289;28;20082;-70
2022/11/30 04:55:22;;;;;;;1.75;1.00;;;;;;;;;;5071896;28;20121;-70
2022/11/30 04:57:47;;;;;;;0.30;0.30;;;;;;;;;;5069566;28;20036;-70
2022/11/30 05:00:14;;;;;;;0.10;0.10;;;;;;;;;;5069656;28;20027;-71
2022/11/30 05:02:39;;;;;;;0.20;0.20;;;;;;;;;;5049697;28;20086;-73
2022/11/30 05:05:05;;;;;;;0.15;0.15;;;;;;;;;;5049754;28;20771;-70
2022/11/30 05:07:30;;;;;;;0.52;0.52;;;;;;;;;;5065907;28;20368;-71
2022/11/30 05:09:56;;;;;;;0.80;0.80;;;;;;;;;;5068526;28;20024;-71
2022/11/30 05:12:21;;;;;;;1.65;1.55;;;;;;;;;;5067999;28;20029;-71
2022/11/30 05:14:46;;;;;;;0.15;0.15;;;;;;;;;;5069214;28;20024;-70
2022/11/30 05:17:12;;;;;;;0.95;0.90;;;;;;;;;;5068669;28;20143;-70
2022/11/30 05:19:37;;;;;;;0.20;0.20;;;;;;;;;;5067354;28;20112;-76
2022/11/30 05:22:03;;;;;;;0.40;0.40;;;;;;;;;;5069616;28;20056;-72
2022/11/30 05:24:28;;;;;;;0.10;0.10;;;;;;;;;;5069109;28;20032;-72
2022/11/30 05:26:54;;;;;;;1.25;1.00;;;;;;;;;;5069753;28;20024;-70
2022/11/30 05:29:19;;;;;;;0.10;0.10;;;;;;;;;;5069247;28;20364;-70
2022/11/30 05:31:45;;;;;;;0.20;0.20;;;;;;;;;;5069195;28;20514;-69
2022/11/30 05:34:10;;;;;;;0.10;0.10;;;;;;;;;;5069021;28;20103;-69
2022/11/30 05:36:36;;;;;;;0.20;0.20;;;;;;;;;;5068956;28;20023;-69
2022/11/30 05:39:01;;;;;;;0.10;0.10;;;;;;;;;;5068385;28;20454;-70
2022/11/30 05:41:27;;;;;;;0.15;0.15;;;;;;;;;;5068081;28;20032;-69
2022/11/30 05:43:52;;;;;;;0.10;0.10;;;;;;;;;;5067521;28;20081;-73
2022/11/30 05:46:17;;;;;;;0.20;0.20;;;;;;;;;;5068448;28;20119;-70
2022/11/30 05:48:43;;;;;;;0.10;0.10;;;;;;;;;;5067587;28;20056;-69
2022/11/30 05:51:15;;;;;;;0.20;0.20;;;;;;;;;;5068142;28;20055;-70
2022/11/30 05:53:41;;;;;;;0.10;0.10;;;;;;;;;;5066894;28;20040;-70
2022/11/30 05:56:11;;;;;;;0.10;0.10;;;;;;;;;;5067209;28;20145;-70
2022/11/30 05:58:37;;;;;;;0.10;0.10;;;;;;;;;;5068732;28;20035;-70
2022/11/30 06:01:02;;;;;;;0.22;0.22;;;;;;;;;;5068177;28;20025;-71
2022/11/30 06:03:29;;;;;;;0.15;0.15;;;;;;;;;;5063014;28;20033;-71
2022/11/30 06:05:54;;;;;;;0.20;0.20;;;;;;;;;;5067105;28;20068;-72
2022/11/30 06:08:20;;;;;;;0.20;0.20;;;;;;;;;;5065718;28;20095;-69
2022/11/30 06:10:46;;;;;;;0.20;0.20;;;;;;;;;;5067710;28;20047;-70
2022/11/30 06:13:11;;;;;;;0.10;0.10;;;;;;;;;;5072193;28;20451;-70
2022/11/30 06:15:37;;;;;;;0.22;0.22;;;;;;;;;;5072063;28;20028;-71
2022/11/30 06:18:03;;;;;;;0.10;0.10;;;;;;;;;;5072480;28;20055;-71
2022/11/30 06:20:29;;;;;;;0.10;0.10;;;;;;;;;;5070683;28;20471;-72
2022/11/30 06:22:54;;;;;;;0.10;0.10;;;;;;;;;;5071356;28;20412;-71
2022/11/30 06:25:20;;;;;;;0.10;0.10;;;;;;;;;;5070685;28;20045;-71
2022/11/30 06:27:45;;;;;;;0.20;0.20;;;;;;;;;;5069820;28;20537;-71
2022/11/30 06:30:11;;;;;;;0.75;0.52;;;;;;;;;;5069030;28;20375;-75
2022/11/30 06:32:37;;;;;;;0.10;0.10;;;;;;;;;;5066086;28;20100;-70
2022/11/30 06:35:02;;;;;;;1.40;1.27;;;;;;;;;;5070435;28;20060;-69
2022/11/30 06:37:28;;;;;;;0.20;0.20;;;;;;;;;;5071848;28;20024;-71
2022/11/30 06:39:54;;;;;;;0.15;0.15;;;;;;;;;;5072078;28;20067;-72
2022/11/30 06:42:19;;;;;;;3.90;0.95;;;;;;;;;;5069224;28;20514;-71
2022/11/30 06:44:45;;;;;;;0.88;0.85;;;;;;;;;;5060019;28;20029;-70
2022/11/30 06:47:11;;;;;;;0.20;0.20;;;;;;;;;;5067530;28;20085;-71
2022/11/30 06:49:37;;;;;;;0.10;0.10;;;;;;;;;;5071073;28;20028;-71
2022/11/30 06:52:02;;;;;;;0.10;0.10;;;;;;;;;;5070621;28;20028;-72
2022/11/30 06:54:28;;;;;;;0.20;0.20;;;;;;;;;;5071893;28;20422;-72
2022/11/30 06:56:55;;;;;;;0.20;0.20;;;;;;;;;;5070374;28;20078;-69
2022/11/30 06:59:21;;;;;;;0.20;0.20;;;;;;;;;;5071047;28;20036;-72
2022/11/30 07:01:46;;;;;;;0.10;0.10;;;;;;;;;;5070548;28;20089;-69
2022/11/30 07:04:12;;;;;;;0.10;0.10;;;;;;;;;;5069317;28;20074;-71
2022/11/30 07:06:37;;;;;;;0.10;0.10;;;;;;;;;;5065336;28;20438;-72
2022/11/30 07:09:03;;;;;;;2.75;1.00;;;;;;;;;;5068940;28;20020;-72
2022/11/30 07:11:28;;;;;;;0.10;0.10;;;;;;;;;;5070685;28;20439;-72
2022/11/30 07:13:54;;;;;;;0.57;0.57;;;;;;;;;;5071232;28;20036;-72
2022/11/30 07:16:19;;;;;;;0.10;0.10;;;;;;;;;;5069348;28;20085;-72
2022/11/30 07:18:45;;;;;;;0.20;0.20;;;;;;;;;;5071186;28;20025;-73
2022/11/30 07:21:10;;;;;;;0.10;0.10;;;;;;;;;;5071467;28;20456;-71
2022/11/30 07:26:20;;;;;;;0.10;0.10;;;;;;;;;;5070758;28;20360;-71
2022/11/30 07:28:46;;;;;;;0.10;0.10;;;;;;;;;;5069934;28;20033;-70
2022/11/30 07:31:13;;;;;;;2.95;1.13;;;;;;;;;;5069285;28;20029;-70
2022/11/30 07:33:38;;;;;;;0.10;0.10;;;;;;;;;;5070175;28;20395;-69
2022/11/30 07:36:04;;;;;;;0.13;0.13;;;;;;;;;;5069248;28;20107;-70
2022/11/30 07:38:29;;;;;;;0.30;0.30;;;;;;;;;;5071025;28;20086;-70
2022/11/30 07:40:56;;;;;;;0.20;0.20;;;;;;;;;;5071128;28;20056;-70
2022/11/30 07:43:21;;;;;;;0.20;0.20;;;;;;;;;;5070081;28;20039;-69
2022/11/30 07:45:51;;;;;;;0.25;0.25;;;;;;;;;;5068753;28;20036;-71
2022/11/30 07:48:16;;;;;;;;;;;;;;;;;;5070114;28;20420;-72
2022/11/30 07:50:42;;;;;;;1.07;0.67;;;;;;;;;;5069456;28;19962;-71
2022/11/30 07:53:07;;;;;;;0.45;0.45;;;;;;;;;;5069851;28;20324;-71
2022/11/30 07:55:33;;;;;;;0.15;0.15;;;;;;;;;;5068532;28;20080;-74
2022/11/30 07:57:58;;;;;;;0.13;0.13;;;;;;;;;;5068972;28;20040;-73
2022/11/30 08:00:24;;;;;;;0.65;0.65;;;;;;;;;;5069478;28;20068;-71
2022/11/30 08:02:49;;;;;;;0.10;0.10;;;;;;;;;;5069093;28;20460;-71
2022/11/30 08:05:15;;;;;;;0.15;0.15;;;;;;;;;;5066045;28;20033;-73
2022/11/30 08:07:40;;;;;;;1.27;1.27;;;;;;;;;;5059300;28;20465;-70
2022/11/30 08:10:06;;;;;;;0.10;0.10;;;;;;;;;;5058457;28;20090;-71
2022/11/30 08:12:31;;;;;;;0.20;0.20;;;;;;;;;;5054872;28;20059;-71
2022/11/30 08:14:57;;;;;;;1.65;1.33;;;;;;;;;;5061053;28;20056;-71
2022/11/30 08:17:23;;;;;;;0.10;0.10;;;;;;;;;;5070219;28;20025;-70
2022/11/30 08:19:48;;;;;;;0.20;0.20;;;;;;;;;;5063383;28;20039;-71
2022/11/30 08:22:13;;;;;;;10.05;2.38;;;;;;;;;;5070016;28;20027;-72
2022/11/30 08:24:39;;;;;;;0.10;0.10;;;;;;;;;;5068311;28;20479;-71
2022/11/30 08:27:04;;;;;;;0.17;0.17;;;;;;;;;;5065736;28;20625;-72
2022/11/30 08:29:29;;;;;;;0.10;0.10;;;;;;;;;;5063806;28;20032;-73
2022/11/30 08:31:55;;;;;;;1.10;1.10;;;;;;;;;;5069622;28;20031;-72
2022/11/30 08:34:20;;;;;;;0.10;0.10;;;;;;;;;;5069852;28;20137;-72
2022/11/30 08:36:46;;;;;;;0.10;0.10;;;;;;;;;;5069236;28;20024;-75
2022/11/30 08:39:12;;;;;;;10.35;2.67;;;;;;;;;;5068798;28;20538;-71
2022/11/30 08:41:38;;;;;;;33.33;25.23;;;;;;;;;;5069409;28;20479;-71
2022/11/30 08:44:04;;;;;;;0.10;0.10;;;;;;;;;;5069535;28;20037;-72
2022/11/30 08:46:29;;;;;;;0.10;0.10;;;;;;;;;;5069989;28;20039;-74
2022/11/30 08:48:55;;;;;;;0.20;0.20;;;;;;;;;;5069624;28;20036;-72
2022/11/30 08:51:20;;;;;;;0.10;0.10;;;;;;;;;;5066460;28;20479;-71
2022/11/30 08:53:46;;;;;;;0.15;0.15;;;;;;;;;;5066463;28;20361;-71
2022/11/30 08:56:13;;;;;;;0.10;0.10;;;;;;;;;;5068488;28;20491;-71
2022/11/30 08:58:39;;;;;;;0.10;0.10;;;;;;;;;;5069161;28;20028;-71
2022/11/30 09:01:09;;;;;;;0.10;0.10;;;;;;;;;;5069489;28;20373;-71
2022/11/30 09:03:34;;;;;;;0.20;0.20;;;;;;;;;;5069332;28;20815;-72
2022/11/30 09:06:07;;;;;;;0.40;0.40;;;;;;;;;;5057229;28;20020;-73
2022/11/30 09:08:33;;;;;;;0.13;0.13;;;;;;;;;;5061129;28;20035;-73
2022/11/30 09:11:06;;;;;;;0.30;0.30;;;;;;;;;;5054087;28;20020;-72
2022/11/30 09:13:31;;;;;;;0.10;0.10;;;;;;;;;;5068389;28;20047;-71
2022/11/30 09:15:56;;;;;;;0.55;0.40;;;;;;;;;;5068461;28;20586;-71
2022/11/30 09:18:22;;;;;;;0.10;0.10;;;;;;;;;;5068565;28;20020;-71
2022/11/30 09:20:47;;;;;;;0.20;0.20;;;;;;;;;;5065603;28;20090;-76
2022/11/30 09:23:13;;;;;;;0.40;0.40;;;;;;;;;;5064004;28;20028;-72
2022/11/30 09:25:38;;;;;;;0.35;0.35;;;;;;;;;;5064678;28;20067;-72
2022/11/30 09:28:03;;;;;;;0.30;0.30;;;;;;;;;;5062843;28;20860;-72
2022/11/30 09:30:29;;;;;;;0.10;0.10;;;;;;;;;;5068908;28;20254;-72
2022/11/30 09:32:54;;;;;;;0.10;0.10;;;;;;;;;;5063435;28;20029;-72
2022/11/30 09:35:20;;;;;;;0.10;0.10;;;;;;;;;;5068825;28;20020;-71
2022/11/30 09:37:45;;;;;;;0.13;0.13;;;;;;;;;;5068399;28;20031;-72
2022/11/30 09:40:12;;;;;;;0.30;0.30;;;;;;;;;;5071330;28;20054;-71
2022/11/30 09:42:41;;;;;;;0.20;0.20;;;;;;;;;;5072992;28;20097;-74
2022/11/30 09:45:12;;;;;;;0.73;0.52;;;;;;;;;;5071613;28;20484;-74
2022/11/30 09:47:57;;;;;;;1.00;0.85;;;;;;;;;;5062210;28;20506;-72
2022/11/30 09:50:25;;;;;;;1.83;0.80;;;;;;;;;;5061518;28;20021;-72
2022/11/30 09:52:59;;;;;;;0.77;0.77;;;;;;;;;;5052978;28;20025;-73
2022/11/30 09:55:38;;;;;;;0.10;0.10;;;;;;;;;;5064413;28;20499;-72
2022/11/30 09:58:04;;;;;;;0.20;0.20;;;;;;;;;;5052651;28;20090;-73
2022/11/30 10:00:30;;;;;;;0.32;0.32;;;;;;;;;;5052208;28;20033;-73
2022/11/30 10:02:56;;;;;;;0.10;0.10;;;;;;;;;;5061076;28;20044;-71
2022/11/30 10:05:39;;;;;;;0.20;0.20;;;;;;;;;;5072900;28;20102;-71
2022/11/30 10:08:20;;;;;;;0.20;0.20;;;;;;;;;;5073013;28;20033;-73
2022/11/30 10:11:15;;;;;;;0.10;0.10;;;;;;;;;;5072400;28;20135;-71
2022/11/30 10:13:58;;;;;;;0.17;0.17;;;;;;;;;;5052137;28;20044;-77
2022/11/30 10:16:48;;;;;;;0.55;0.35;;;;;;;;;;5067750;28;20041;-75
2022/11/30 10:19:16;;;;;;;4.53;1.73;;;;;;;;;;5069963;28;20035;-73
2022/11/30 10:22:03;;;;;;;0.20;0.20;;;;;;;;;;5069882;28;20036;-77
2022/11/30 10:24:49;;;;;;;0.17;0.17;;;;;;;;;;5070358;28;20056;-74
2022/11/30 10:27:35;;;;;;;0.13;0.13;;;;;;;;;;5064010;28;20075;-75
2022/11/30 10:30:01;;;;;;;0.10;0.10;;;;;;;;;;5065780;28;20041;-76
2022/11/30 10:32:35;;;;;;;0.20;0.20;;;;;;;;;;5067025;28;20016;-74
2022/11/30 10:35:10;;;;;;;0.20;0.20;;;;;;;;;;5085805;28;20102;-74
2022/11/30 10:37:38;;;;;;;0.20;0.20;;;;;;;;;;5066418;28;20036;-75
2022/11/30 10:40:03;;;;;;;0.30;0.30;;;;;;;;;;5066888;28;20678;-75
2022/11/30 10:42:41;;;;;;;0.32;0.32;;;;;;;;;;5066615;28;20113;-75
2022/11/30 10:45:12;;;;;;;0.95;0.82;;;;;;;;;;5066553;28;20036;-73
2022/11/30 10:48:01;;;;;;;0.40;0.40;;;;;;;;;;5066865;28;20062;-74
2022/11/30 10:50:28;;;;;;;0.20;0.20;;;;;;;;;;5056653;28;20040;-74
2022/11/30 10:52:55;;;;;;;0.20;0.20;;;;;;;;;;5065399;28;20032;-74
2022/11/30 10:55:22;;;;;;;0.17;0.17;;;;;;;;;;5067687;28;20049;-73
2022/11/30 10:57:49;;;;;;;0.20;0.20;;;;;;;;;;5067226;28;20036;-74
2022/11/30 11:00:16;;;;;;;2.13;0.88;;;;;;;;;;5046724;28;20029;-74
2022/11/30 11:02:49;;;;;;;0.20;0.20;;;;;;;;;;5051188;28;20021;-74
2022/11/30 11:05:20;;;;;;;0.20;0.20;;;;;;;;;;5069010;28;20535;-75
2022/11/30 11:07:55;;;;;;;0.20;0.20;;;;;;;;;;5068123;28;20039;-74
2022/11/30 11:10:24;;;;;;;0.20;0.20;;;;;;;;;;5069868;28;20028;-74
2022/11/30 11:12:53;;;;;;;0.20;0.20;;;;;;;;;;5069264;28;20020;-77
2022/11/30 11:15:26;;;;;;;0.15;0.15;;;;;;;;;;5063135;28;20090;-75
2022/11/30 11:17:52;;;;;;;0.20;0.20;;;;;;;;;;5069036;28;20036;-75
2022/11/30 11:20:27;;;;;;;2.05;1.40;;;;;;;;;;5061197;28;20804;-76
2022/11/30 12:46:40;;;;;;;1.27;1.17;;;;;;;;;;5037363;28;20131;-75
2022/11/30 12:49:24;;;;;;;0.30;0.30;;;;;;;;;;5049575;28;20048;-74
2022/11/30 12:52:15;;;;;;;0.38;0.38;;;;;;;;;;5064843;28;20388;-75
2022/11/30 12:54:47;;;;;;;0.40;0.40;;;;;;;;;;5013944;28;20481;-75
2022/11/30 12:57:21;;;;;;;0.20;0.20;;;;;;;;;;5029906;28;20071;-76
2022/11/30 12:59:50;;;;;;;0.40;0.40;;;;;;;;;;5031603;28;20035;-75
2022/11/30 13:02:24;;;;;;;0.20;0.20;;;;;;;;;;5036604;28;20018;-75
2022/11/30 13:04:57;;;;;;;0.30;0.30;;;;;;;;;;5042894;28;20037;-75
2022/11/30 13:07:33;;;;;;;0.40;0.40;;;;;;;;;;5049671;28;20487;-77
2022/11/30 13:10:12;;;;;;;0.30;0.30;;;;;;;;;;5048505;28;20700;-77
2022/11/30 13:12:40;;;;;;;0.20;0.20;;;;;;;;;;5048740;28;20040;-77
2022/11/30 13:15:15;;;;;;;0.25;0.25;;;;;;;;;;5044933;28;20025;-76
2022/11/30 13:17:41;;;;;;;0.40;0.40;;;;;;;;;;5044524;28;20052;-76
2022/11/30 13:20:26;;;;;;;0.30;0.30;;;;;;;;;;5046412;28;20465;-77
2022/11/30 13:22:58;;;;;;;0.30;0.30;;;;;;;;;;5047802;28;20469;-76
2022/11/30 13:25:26;;;;;;;0.30;0.30;;;;;;;;;;5034632;28;20049;-75
2022/11/30 13:28:01;;;;;;;0.25;0.25;;;;;;;;;;5027539;28;20074;-76
2022/11/30 13:30:47;;;;;;;0.20;0.20;;;;;;;;;;5036797;28;20044;-76
2022/11/30 13:33:30;;;;;;;0.45;0.40;;;;;;;;;;5047977;28;20098;-77
2022/11/30 13:35:56;;;;;;;0.40;0.40;;;;;;;;;;5048154;28;20057;-77
2022/11/30 13:38:21;;;;;;;0.20;0.20;;;;;;;;;;5047042;28;20432;-76
2022/11/30 13:41:03;;;;;;;0.30;0.30;;;;;;;;;;5030909;28;20473;-77
2022/11/30 13:43:30;;;;;;;0.30;0.30;;;;;;;;;;5029082;28;20033;-76
2022/11/30 13:46:25;;;;;;;0.30;0.30;;;;;;;;;;5051996;28;20044;-77
2022/11/30 13:49:09;;;;;;;1.10;0.55;;;;;;;;;;5067094;28;20045;-74
2022/11/30 13:51:36;;;;;;;0.28;0.28;;;;;;;;;;5048823;28;20041;-76
2022/11/30 13:54:34;;;;;;;0.20;0.20;;;;;;;;;;5047743;28;20447;-77
2022/11/30 13:56:59;;;;;;;0.20;0.20;;;;;;;;;;5030821;28;20040;-77
2022/11/30 13:59:25;;;;;;;0.28;0.28;;;;;;;;;;5065599;28;20035;-76
2022/11/30 14:01:51;;;;;;;0.40;0.38;;;;;;;;;;5060175;28;20028;-78
2022/11/30 14:04:16;;;;;;;1.58;1.48;;;;;;;;;;5066726;28;20033;-76
2022/11/30 14:06:42;;;;;;;0.30;0.30;;;;;;;;;;5067078;28;20367;-75
2022/11/30 14:09:15;;;;;;;0.20;0.20;;;;;;;;;;5066656;28;20163;-78
2022/11/30 14:11:41;;;;;;;0.20;0.20;;;;;;;;;;5066835;28;20032;-79
2022/11/30 14:14:25;;;;;;;0.20;0.20;;;;;;;;;;5065771;28;20025;-76
2022/11/30 14:16:51;;;;;;;0.20;0.20;;;;;;;;;;5065306;28;20601;-78
2022/11/30 14:19:17;;;;;;;0.32;0.32;;;;;;;;;;5066691;28;20037;-76
2022/11/30 14:21:43;;;;;;;0.20;0.20;;;;;;;;;;5064173;28;20035;-76
2022/11/30 14:24:20;;;;;;;0.30;0.30;;;;;;;;;;5067568;28;20040;-76
2022/11/30 14:26:49;;;;;;;0.20;0.20;;;;;;;;;;5069124;28;20028;-76
2022/11/30 14:29:26;;;;;;;0.40;0.40;;;;;;;;;;5070557;28;20040;-76
2022/11/30 14:31:55;;;;;;;1.30;0.52;;;;;;;;;;5067400;28;20113;-77
2022/11/30 14:34:25;;;;;;;0.30;0.30;;;;;;;;;;5065185;28;20035;-76
2022/11/30 14:36:53;;;;;;;0.20;0.20;;;;;;;;;;5063751;28;20479;-76
2022/11/30 14:39:24;;;;;;;0.20;0.20;;;;;;;;;;5076505;28;20029;-76
2022/11/30 14:41:49;;;;;;;0.20;0.20;;;;;;;;;;5067858;28;20056;-78
2022/11/30 14:44:14;;;;;;;0.20;0.20;;;;;;;;;;5067449;28;20068;-79
2022/11/30 14:46:40;;;;;;;0.20;0.20;;;;;;;;;;5066651;28;20482;-77
2022/11/30 14:49:11;;;;;;;0.20;0.20;;;;;;;;;;5063184;28;20040;-79
2022/11/30 14:51:37;;;;;;;0.20;0.20;;;;;;;;;;5069147;28;20028;-77
2022/11/30 14:54:17;;;;;;;0.13;0.13;;;;;;;;;;5066661;28;20655;-75
2022/11/30 14:56:47;;;;;;;0.20;0.20;;;;;;;;;;5065149;28;20040;-76
2022/11/30 14:59:27;;;;;;;0.20;0.20;;;;;;;;;;5067304;28;20032;-76
2022/11/30 15:01:57;;;;;;;0.10;0.10;;;;;;;;;;5067332;28;20031;-75
2022/11/30 15:04:26;;;;;;;0.20;0.20;;;;;;;;;;5067662;28;20028;-76
2022/11/30 15:06:52;;;;;;;0.40;0.40;;;;;;;;;;5066368;28;20024;-76
2022/11/30 15:09:19;;;;;;;0.20;0.20;;;;;;;;;;5057775;28;20028;-75
2022/11/30 15:11:45;;;;;;;0.40;0.40;;;;;;;;;;5061620;28;20036;-75
2022/11/30 15:14:11;;;;;;;0.30;0.30;;;;;;;;;;5063823;28;20036;-77
2022/11/30 15:16:37;;;;;;;0.55;0.55;;;;;;;;;;5056002;28;20355;-77
2022/11/30 15:19:21;;;;;;;0.20;0.20;;;;;;;;;;5059490;28;20081;-78
2022/11/30 15:21:47;;;;;;;0.20;0.20;;;;;;;;;;5067977;28;20031;-76
2022/11/30 15:24:12;;;;;;;0.22;0.22;;;;;;;;;;5069182;28;20028;-77
2022/11/30 15:26:53;;;;;;;0.28;0.28;;;;;;;;;;5073192;28;20360;-77
2022/11/30 15:29:27;;;;;;;0.20;0.20;;;;;;;;;;5068428;28;20032;-77
2022/11/30 15:31:55;;;;;;;0.20;0.20;;;;;;;;;;5066006;28;20067;-76
2022/11/30 15:34:23;;;;;;;0.20;0.20;;;;;;;;;;5065038;28;20029;-77
2022/11/30 15:36:52;;;;;;;0.10;0.10;;;;;;;;;;5069398;28;20055;-76
2022/11/30 15:39:21;;;;;;;0.20;0.20;;;;;;;;;;5065406;28;20323;-77
2022/11/30 15:41:47;;;;;;;;;;;;;;;;;;5067920;28;20036;-74
2022/11/30 15:44:23;;;;;;;0.25;0.25;;;;;;;;;;5100285;28;19916;-77
2022/11/30 15:46:55;;;;;;;0.10;0.10;;;;;;;;;;5061045;28;20043;-77
2022/11/30 15:49:23;;;;;;;0.15;0.15;;;;;;;;;;5069691;28;20031;-76
2022/11/30 15:51:57;;;;;;;0.10;0.10;;;;;;;;;;5065843;28;20032;-70
2022/11/30 15:54:40;;;;;;;0.10;0.10;;;;;;;;;;5068478;28;20024;-70
2022/11/30 15:57:06;;;;;;;0.10;0.10;;;;;;;;;;5067883;28;20024;-73
2022/11/30 15:59:33;;;;;;;0.22;0.20;;;;;;;;;;5068012;28;20035;-71
2022/11/30 16:02:00;;;;;;;0.20;0.20;;;;;;;;;;5050121;28;20024;-70
2022/11/30 16:04:45;;;;;;;0.70;0.70;;;;;;;;;;5052172;28;20037;-70
2022/11/30 16:07:17;;;;;;;0.10;0.10;;;;;;;;;;5067410;28;20044;-71
2022/11/30 16:09:42;;;;;;;0.30;0.30;;;;;;;;;;5071783;28;20103;-71
2022/11/30 16:12:24;;;;;;;0.10;0.10;;;;;;;;;;5069596;28;20108;-73
2022/11/30 16:14:50;;;;;;;0.63;0.63;;;;;;;;;;5085410;28;20052;-70
2022/11/30 16:17:15;;;;;;;0.10;0.10;;;;;;;;;;5069477;28;20028;-69